createdAt,value
2023-01-08T00:01:34.728Z,100293.81
2023-01-08T00:04:04.037Z,100297.22
2023-01-08T00:06:33.102Z,100280.81
2023-01-08T00:09:02.389Z,100268.41
2023-01-08T00:11:30.151Z,100271.13
2023-01-08T00:13:57.989Z,100277.03
2023-01-08T00:16:25.560Z,100273.59
2023-01-08T00:18:54.519Z,100272.66
2023-01-08T00:21:22.074Z,100274.06
2023-01-08T00:23:49.937Z,100282.13
2023-01-08T00:26:17.594Z,100273.59
2023-01-08T00:28:45.059Z,100267.44
2023-01-08T00:31:13.931Z,100268.97
2023-01-08T00:33:43.316Z,100264.59
2023-01-08T00:36:16.916Z,100262.25
2023-01-08T00:38:47.372Z,100257.16
2023-01-08T00:41:18.312Z,100251.13
2023-01-08T00:43:47.293Z,100241.09
2023-01-08T00:46:21.706Z,100239.44
2023-01-08T00:48:49.284Z,100244.28
2023-01-08T00:51:16.517Z,100238.72
2023-01-08T00:53:44.078Z,100245.22
2023-01-08T00:56:11.914Z,100241.91
2023-01-08T00:58:39.665Z,100239.78
2023-01-08T01:01:15.734Z,100242.25
2023-01-08T01:03:43.556Z,100240.50
2023-01-08T01:06:12.527Z,100244.16
2023-01-08T01:08:40.211Z,100238.13
2023-01-08T01:11:13.773Z,100245.13
2023-01-08T01:13:43.512Z,100244.72
2023-01-08T01:16:10.982Z,100242.50
2023-01-08T01:18:41.438Z,100234.34
2023-01-08T01:21:29.836Z,100219.44
2023-01-08T01:24:00.866Z,100220.75
2023-01-08T01:26:28.741Z,100228.16
2023-01-08T01:29:00.386Z,100224.50
2023-01-08T01:31:32.725Z,100225.00
2023-01-08T01:34:00.721Z,100229.00
2023-01-08T01:36:28.687Z,100227.13
2023-01-08T01:38:59.668Z,100227.72
2023-01-08T01:41:32.774Z,100219.19
2023-01-08T01:44:21.419Z,100218.38
2023-01-08T01:46:50.616Z,100217.19
2023-01-08T01:49:26.551Z,100215.06
2023-01-08T01:52:02.746Z,100210.91
2023-01-08T01:54:35.211Z,100215.28
2023-01-08T01:57:03.499Z,100207.38
2023-01-08T01:59:30.974Z,100209.97
2023-01-08T02:01:59.193Z,100202.72
2023-01-08T02:04:29.529Z,100198.75
2023-01-08T02:07:40.343Z,100199.44
2023-01-08T02:10:13.171Z,100205.34
2023-01-08T02:12:51.977Z,100199.44
2023-01-08T02:15:29.052Z,100202.63
2023-01-08T02:18:21.384Z,100200.63
2023-01-08T02:21:06.510Z,100199.34
2023-01-08T02:24:15.293Z,100196.63
2023-01-08T02:26:47.617Z,100187.28
2023-01-08T02:29:23.908Z,100175.56
2023-01-08T02:31:51.393Z,100179.13
2023-01-08T02:34:22.641Z,100176.63
2023-01-08T02:36:57.839Z,100182.44
2023-01-08T02:39:37.281Z,100172.16
2023-01-08T02:42:19.897Z,100162.34
2023-01-08T02:45:00.190Z,100170.34
2023-01-08T02:47:36.271Z,100166.47
2023-01-08T02:50:22.104Z,100157.63
2023-01-08T02:52:55.346Z,100158.78
2023-01-08T02:55:26.886Z,100159.28
2023-01-08T02:57:54.545Z,100165.88
2023-01-08T03:00:22.536Z,100177.72
2023-01-08T03:02:55.587Z,100176.91
2023-01-08T03:05:28.897Z,100164.63
2023-01-08T03:07:57.213Z,100184.13
2023-01-08T03:10:29.225Z,100180.00
2023-01-08T03:13:05.396Z,100184.03
2023-01-08T03:15:38.543Z,100168.09
2023-01-08T03:18:11.710Z,100164.16
2023-01-08T03:20:40.052Z,100170.34
2023-01-08T03:23:11.387Z,100158.97
2023-01-08T03:25:42.947Z,100159.09
2023-01-08T03:28:19.402Z,100178.34
2023-01-08T03:30:49.295Z,100177.50
2023-01-08T03:33:19.387Z,100162.75
2023-01-08T03:35:50.722Z,100162.75
2023-01-08T03:38:30.109Z,100165.97
2023-01-08T03:41:06.440Z,100168.78
2023-01-08T03:43:34.098Z,100155.31
2023-01-08T03:46:06.666Z,100164.50
2023-01-08T03:48:36.526Z,100161.56
2023-01-08T03:51:04.169Z,100160.97
2023-01-08T03:53:31.517Z,100165.56
2023-01-08T03:56:01.923Z,100178.09
2023-01-08T03:58:29.322Z,100182.94
2023-01-08T04:01:00.462Z,100177.25
2023-01-08T04:03:28.179Z,100168.03
2023-01-08T04:05:55.926Z,100162.84
2023-01-08T04:08:23.286Z,100151.53
2023-01-08T04:10:50.772Z,100151.03
2023-01-08T04:13:18.217Z,100147.72
2023-01-08T04:15:50.467Z,100160.50
2023-01-08T04:18:20.636Z,100146.41
2023-01-08T04:20:49.056Z,100147.25
2023-01-08T04:23:19.489Z,100144.53
2023-01-08T04:25:47.002Z,100138.94
2023-01-08T04:28:16.983Z,100138.03
2023-01-08T04:30:46.753Z,100139.66
2023-01-08T04:33:18.578Z,100148.75
2023-01-08T04:35:45.657Z,100145.94
2023-01-08T04:38:16.014Z,100145.69
2023-01-08T04:40:43.507Z,100137.53
2023-01-08T04:43:10.936Z,100130.94
2023-01-08T04:45:38.675Z,100130.09
2023-01-08T04:48:06.251Z,100125.97
2023-01-08T04:50:34.475Z,100123.50
2023-01-08T04:53:01.911Z,100127.38
2023-01-08T04:55:29.295Z,100123.84
2023-01-08T04:57:56.722Z,100113.31
2023-01-08T05:00:24.133Z,100114.63
2023-01-08T05:02:51.801Z,100112.47
2023-01-08T05:05:19.276Z,100108.84
2023-01-08T05:07:46.603Z,100111.91
2023-01-08T05:10:13.961Z,100109.66
2023-01-08T05:12:41.229Z,100097.97
2023-01-08T05:15:09.635Z,100094.66
2023-01-08T05:17:36.768Z,100095.00
2023-01-08T05:20:04.492Z,100112.47
2023-01-08T05:22:31.885Z,100103.66
2023-01-08T05:24:59.405Z,100098.94
2023-01-08T05:27:26.767Z,100097.53
2023-01-08T05:29:53.932Z,100097.28
2023-01-08T05:32:24.058Z,100099.78
2023-01-08T05:34:51.565Z,100105.09
2023-01-08T05:37:18.911Z,100097.41
2023-01-08T05:39:49.346Z,100094.47
2023-01-08T05:42:16.584Z,100100.13
2023-01-08T05:44:44.085Z,100095.75
2023-01-08T05:47:11.338Z,100096.25
2023-01-08T05:49:42.080Z,100100.53
2023-01-08T05:52:09.454Z,100104.31
2023-01-08T05:54:36.721Z,100100.19
2023-01-08T05:57:06.994Z,100098.16
2023-01-08T05:59:34.497Z,100098.63
2023-01-08T06:02:02.009Z,100094.03
2023-01-08T06:04:29.373Z,100088.59
2023-01-08T06:06:58.890Z,100085.88
2023-01-08T06:09:26.399Z,100083.06
2023-01-08T06:11:53.697Z,100080.56
2023-01-08T06:14:21.235Z,100083.53
2023-01-08T06:16:49.131Z,100079.59
2023-01-08T06:19:16.486Z,100085.53
2023-01-08T06:21:44.013Z,100091.31
2023-01-08T06:24:11.408Z,100094.13
2023-01-08T06:26:38.967Z,100084.22
2023-01-08T06:29:06.615Z,100080.34
2023-01-08T06:31:34.189Z,100077.38
2023-01-08T06:34:01.785Z,100081.63
2023-01-08T06:36:29.983Z,100076.66
2023-01-08T06:39:06.146Z,100079.47
2023-01-08T06:41:35.256Z,100081.13
2023-01-08T06:44:02.712Z,100069.09
2023-01-08T06:46:34.545Z,100070.00
2023-01-08T06:49:05.497Z,100066.38
2023-01-08T06:51:33.509Z,100066.38
2023-01-08T06:54:13.576Z,100071.09
2023-01-08T06:56:53.032Z,100071.56
2023-01-08T06:59:24.657Z,100072.88
2023-01-08T07:01:52.059Z,100069.91
2023-01-08T07:04:21.001Z,100072.41
2023-01-08T07:06:48.795Z,100069.59
2023-01-08T07:09:16.710Z,100072.88
2023-01-08T07:11:51.885Z,100065.66
2023-01-08T07:14:20.229Z,100061.53
2023-01-08T07:16:47.532Z,100065.66
2023-01-08T07:19:14.958Z,100068.13
2023-01-08T07:21:42.484Z,100064.34
2023-01-08T07:24:10.069Z,100050.16
2023-01-08T07:26:37.343Z,100063.41
2023-01-08T07:29:04.625Z,100053.13
2023-01-08T07:31:31.905Z,100050.75
2023-01-08T07:33:59.394Z,100055.34
2023-01-08T07:36:26.635Z,100054.63
2023-01-08T07:38:53.848Z,100062.78
2023-01-08T07:41:21.179Z,100067.25
2023-01-08T07:43:49.240Z,100056.75
2023-01-08T07:46:17.105Z,100052.38
2023-01-08T07:48:44.267Z,100042.69
2023-01-08T07:51:11.594Z,100044.41
2023-01-08T07:53:38.943Z,100043.75
2023-01-08T07:56:08.904Z,100042.69
2023-01-08T07:58:36.530Z,100035.69
2023-01-08T08:01:04.434Z,100042.78
2023-01-08T08:03:32.289Z,100042.44
2023-01-08T08:06:01.700Z,100041.13
2023-01-08T08:08:28.929Z,100036.94
2023-01-08T08:10:59.009Z,100032.72
2023-01-08T08:13:26.583Z,100032.97
2023-01-08T08:15:54.188Z,100032.13
2023-01-08T08:18:22.922Z,100027.53
2023-01-08T08:20:52.318Z,100031.91
2023-01-08T08:23:20.593Z,100036.03
2023-01-08T08:25:49.093Z,100034.94
2023-01-08T08:28:16.327Z,100032.22
2023-01-08T08:30:49.409Z,100040.00
2023-01-08T08:33:16.409Z,100035.88
2023-01-08T08:35:49.552Z,100039.50
2023-01-08T08:38:17.061Z,100040.44
2023-01-08T08:40:45.822Z,100048.13
2023-01-08T08:43:13.220Z,100049.41
2023-01-08T08:45:40.658Z,100042.69
2023-01-08T08:48:09.032Z,100034.91
2023-01-08T08:50:36.992Z,100034.06
2023-01-08T08:53:06.135Z,100037.63
2023-01-08T08:55:34.711Z,100039.03
2023-01-08T08:58:08.597Z,100030.28
2023-01-08T09:00:35.783Z,100039.03
2023-01-08T09:15:47.326Z,100046.34
2023-01-08T09:18:39.555Z,100045.78
2023-01-08T09:21:07.954Z,100041.25
2023-01-08T09:23:35.760Z,100041.03
2023-01-08T09:26:06.701Z,100048.94
2023-01-08T09:28:53.236Z,100066.91
2023-01-08T09:31:20.766Z,100041.63
2023-01-08T09:33:49.168Z,100046.00
2023-01-08T09:36:16.404Z,100046.47
2023-01-08T09:38:45.309Z,100025.31
2023-01-08T09:41:21.543Z,100019.63
2023-01-08T10:06:38.311Z,100028.78
2023-01-08T10:09:07.658Z,100023.56
2023-01-08T10:11:43.735Z,100023.34
2023-01-08T10:14:23.400Z,100019.28
2023-01-08T10:16:59.576Z,100007.25
